sensor_id;sensor_type;location;lat;lon;timestamp;P1;durP1;ratioP1;P2;durP2;ratioP2
61675;SDS011;47574;52.090;5.244;2023-02-28T00:01:10;5.3;;;4.0;;
61675;SDS011;47574;52.090;5.244;2023-02-28T00:04:24;8.4;;;4.91;;
61675;SDS011;47574;52.090;5.244;2023-02-28T00:06:00;8.6;;;4.8;;
61675;SDS011;47574;52.090;5.244;2023-02-28T00:07:37;9.21;;;5.9;;
61675;SDS011;47574;52.090;5.244;2023-02-28T00:10:50;15.9;;;8.6;;
61675;SDS011;47574;52.090;5.244;2023-02-28T00:12:26;20.9;;;10.9;;
61675;SDS011;47574;52.090;5.244;2023-02-28T00:14:02;12.4;;;8.0;;
61675;SDS011;47574;52.090;5.244;2023-02-28T00:17:15;8.31;;;5.7;;
61675;SDS011;47574;52.090;5.244;2023-02-28T00:18:51;12.2;;;5.9;;
61675;SDS011;47574;52.090;5.244;2023-02-28T00:20:27;14.8;;;6.9;;
61675;SDS011;47574;52.090;5.244;2023-02-28T00:22:03;7.8;;;5.3;;
61675;SDS011;47574;52.090;5.244;2023-02-28T00:25:16;6.5;;;4.7;;
61675;SDS011;47574;52.090;5.244;2023-02-28T00:26:55;10.0;;;4.91;;
61675;SDS011;47574;52.090;5.244;2023-02-28T00:28:31;8.4;;;4.7;;
61675;SDS011;47574;52.090;5.244;2023-02-28T00:31:51;7.4;;;3.9;;
61675;SDS011;47574;52.090;5.244;2023-02-28T00:33:27;6.6;;;4.2;;
61675;SDS011;47574;52.090;5.244;2023-02-28T00:35:05;5.6;;;4.41;;
61675;SDS011;47574;52.090;5.244;2023-02-28T00:36:42;6.3;;;4.0;;
61675;SDS011;47574;52.090;5.244;2023-02-28T00:39:56;6.7;;;4.0;;
61675;SDS011;47574;52.090;5.244;2023-02-28T00:41:32;8.81;;;4.41;;
61675;SDS011;47574;52.090;5.244;2023-02-28T00:43:08;8.1;;;4.41;;
61675;SDS011;47574;52.090;5.244;2023-02-28T00:46:20;5.5;;;4.3;;
61675;SDS011;47574;52.090;5.244;2023-02-28T00:47:56;9.81;;;4.91;;
61675;SDS011;47574;52.090;5.244;2023-02-28T00:49:32;9.0;;;4.7;;
61675;SDS011;47574;52.090;5.244;2023-02-28T00:52:45;6.9;;;4.5;;
61675;SDS011;47574;52.090;5.244;2023-02-28T00:54:22;6.6;;;4.41;;
61675;SDS011;47574;52.090;5.244;2023-02-28T00:55:59;8.6;;;4.61;;
61675;SDS011;47574;52.090;5.244;2023-02-28T00:57:35;7.5;;;3.9;;
61675;SDS011;47574;52.090;5.244;2023-02-28T01:00:49;7.4;;;4.3;;
61675;SDS011;47574;52.090;5.244;2023-02-28T01:02:26;7.6;;;4.5;;
61675;SDS011;47574;52.090;5.244;2023-02-28T01:04:02;8.9;;;4.5;;
61675;SDS011;47574;52.090;5.244;2023-02-28T01:07:14;7.9;;;4.41;;
61675;SDS011;47574;52.090;5.244;2023-02-28T01:08:50;7.2;;;4.1;;
61675;SDS011;47574;52.090;5.244;2023-02-28T01:10:27;6.3;;;4.2;;
61675;SDS011;47574;52.090;5.244;2023-02-28T01:13:40;6.7;;;4.5;;
61675;SDS011;47574;52.090;5.244;2023-02-28T01:15:17;9.6;;;4.1;;
61675;SDS011;47574;52.090;5.244;2023-02-28T01:16:53;9.4;;;4.3;;
61675;SDS011;47574;52.090;5.244;2023-02-28T01:18:29;8.2;;;4.61;;
61675;SDS011;47574;52.090;5.244;2023-02-28T01:21:42;7.1;;;3.8;;
61675;SDS011;47574;52.090;5.244;2023-02-28T01:23:18;10.8;;;4.41;;
61675;SDS011;47574;52.090;5.244;2023-02-28T01:24:55;6.0;;;3.7;;
61675;SDS011;47574;52.090;5.244;2023-02-28T01:28:08;7.1;;;3.8;;
61675;SDS011;47574;52.090;5.244;2023-02-28T01:29:44;7.0;;;4.1;;
61675;SDS011;47574;52.090;5.244;2023-02-28T01:31:21;8.4;;;3.9;;
61675;SDS011;47574;52.090;5.244;2023-02-28T01:34:35;6.7;;;3.5;;
61675;SDS011;47574;52.090;5.244;2023-02-28T01:36:12;5.11;;;3.9;;
61675;SDS011;47574;52.090;5.244;2023-02-28T01:37:51;7.3;;;3.6;;
61675;SDS011;47574;52.090;5.244;2023-02-28T01:39:27;6.6;;;3.9;;
61675;SDS011;47574;52.090;5.244;2023-02-28T01:42:40;6.8;;;3.4;;
61675;SDS011;47574;52.090;5.244;2023-02-28T01:45:22;9.1;;;4.0;;
61675;SDS011;47574;52.090;5.244;2023-02-28T01:47:01;7.1;;;4.1;;
61675;SDS011;47574;52.090;5.244;2023-02-28T01:48:38;6.3;;;3.6;;
61675;SDS011;47574;52.090;5.244;2023-02-28T01:50:19;6.6;;;3.6;;
61675;SDS011;47574;52.090;5.244;2023-02-28T01:51:58;7.3;;;4.0;;
61675;SDS011;47574;52.090;5.244;2023-02-28T01:55:17;7.3;;;3.5;;
61675;SDS011;47574;52.090;5.244;2023-02-28T01:56:58;6.7;;;4.0;;
61675;SDS011;47574;52.090;5.244;2023-02-28T01:58:40;6.5;;;3.6;;
61675;SDS011;47574;52.090;5.244;2023-02-28T02:00:18;5.8;;;3.8;;
61675;SDS011;47574;52.090;5.244;2023-02-28T02:03:36;6.1;;;3.5;;
61675;SDS011;47574;52.090;5.244;2023-02-28T02:05:14;8.5;;;4.61;;
61675;SDS011;47574;52.090;5.244;2023-02-28T02:06:53;7.9;;;3.9;;
61675;SDS011;47574;52.090;5.244;2023-02-28T02:10:13;6.1;;;3.6;;
61675;SDS011;47574;52.090;5.244;2023-02-28T02:11:50;6.7;;;3.4;;
61675;SDS011;47574;52.090;5.244;2023-02-28T02:13:34;6.5;;;3.5;;
61675;SDS011;47574;52.090;5.244;2023-02-28T02:15:29;6.3;;;3.8;;
61675;SDS011;47574;52.090;5.244;2023-02-28T02:17:14;7.6;;;4.0;;
61675;SDS011;47574;52.090;5.244;2023-02-28T02:21:20;6.2;;;3.8;;
61675;SDS011;47574;52.090;5.244;2023-02-28T02:27:16;7.4;;;4.0;;
61675;SDS011;47574;52.090;5.244;2023-02-28T02:29:48;6.8;;;3.3;;
61675;SDS011;47574;52.090;5.244;2023-02-28T02:33:09;7.2;;;3.7;;
61675;SDS011;47574;52.090;5.244;2023-02-28T02:35:27;6.1;;;3.5;;
61675;SDS011;47574;52.090;5.244;2023-02-28T02:37:11;5.7;;;3.3;;
61675;SDS011;47574;52.090;5.244;2023-02-28T02:38:56;7.1;;;3.8;;
61675;SDS011;47574;52.090;5.244;2023-02-28T02:40:42;7.2;;;3.6;;
61675;SDS011;47574;52.090;5.244;2023-02-28T02:42:31;6.1;;;3.4;;
61675;SDS011;47574;52.090;5.244;2023-02-28T02:44:16;7.8;;;3.7;;
61675;SDS011;47574;52.090;5.244;2023-02-28T02:47:40;8.1;;;3.6;;
61675;SDS011;47574;52.090;5.244;2023-02-28T02:49:19;6.9;;;4.1;;
61675;SDS011;47574;52.090;5.244;2023-02-28T02:51:00;5.9;;;3.5;;
61675;SDS011;47574;52.090;5.244;2023-02-28T02:52:42;5.3;;;3.3;;
61675;SDS011;47574;52.090;5.244;2023-02-28T02:56:12;7.0;;;3.7;;
61675;SDS011;47574;52.090;5.244;2023-02-28T02:57:51;6.7;;;3.7;;
61675;SDS011;47574;52.090;5.244;2023-02-28T02:59:33;6.8;;;3.7;;
61675;SDS011;47574;52.090;5.244;2023-02-28T03:01:14;5.6;;;3.8;;
61675;SDS011;47574;52.090;5.244;2023-02-28T03:04:33;6.7;;;3.7;;
61675;SDS011;47574;52.090;5.244;2023-02-28T03:06:17;8.71;;;3.4;;
61675;SDS011;47574;52.090;5.244;2023-02-28T03:07:54;8.4;;;3.8;;
61675;SDS011;47574;52.090;5.244;2023-02-28T03:09:32;8.4;;;3.8;;
61675;SDS011;47574;52.090;5.244;2023-02-28T03:12:51;5.4;;;3.7;;
61675;SDS011;47574;52.090;5.244;2023-02-28T03:14:43;6.3;;;3.7;;
61675;SDS011;47574;52.090;5.244;2023-02-28T03:16:33;8.6;;;3.6;;
61675;SDS011;47574;52.090;5.244;2023-02-28T03:18:17;5.9;;;3.4;;
61675;SDS011;47574;52.090;5.244;2023-02-28T03:20:04;7.0;;;3.1;;
61675;SDS011;47574;52.090;5.244;2023-02-28T03:23:42;6.2;;;3.4;;
61675;SDS011;47574;52.090;5.244;2023-02-28T03:25:28;5.8;;;3.6;;
61675;SDS011;47574;52.090;5.244;2023-02-28T03:27:12;5.2;;;3.3;;
61675;SDS011;47574;52.090;5.244;2023-02-28T03:28:58;5.8;;;3.5;;
61675;SDS011;47574;52.090;5.244;2023-02-28T03:30:42;5.2;;;3.6;;
61675;SDS011;47574;52.090;5.244;2023-02-28T03:32:27;6.5;;;3.4;;
61675;SDS011;47574;52.090;5.244;2023-02-28T03:35:54;7.3;;;3.5;;
61675;SDS011;47574;52.090;5.244;2023-02-28T03:37:35;5.9;;;3.5;;
61675;SDS011;47574;52.090;5.244;2023-02-28T03:39:17;5.4;;;3.4;;
61675;SDS011;47574;52.090;5.244;2023-02-28T03:40:58;7.4;;;3.0;;
61675;SDS011;47574;52.090;5.244;2023-02-28T03:44:22;6.9;;;3.8;;
61675;SDS011;47574;52.090;5.244;2023-02-28T03:46:06;6.7;;;3.3;;
61675;SDS011;47574;52.090;5.244;2023-02-28T03:47:47;6.3;;;3.2;;
61675;SDS011;47574;52.090;5.244;2023-02-28T03:49:29;6.4;;;3.6;;
61675;SDS011;47574;52.090;5.244;2023-02-28T03:51:10;6.8;;;3.5;;
61675;SDS011;47574;52.090;5.244;2023-02-28T03:54:38;9.1;;;3.6;;
61675;SDS011;47574;52.090;5.244;2023-02-28T03:56:21;6.0;;;3.5;;
61675;SDS011;47574;52.090;5.244;2023-02-28T03:58:04;8.31;;;3.7;;
61675;SDS011;47574;52.090;5.244;2023-02-28T03:59:52;6.4;;;3.6;;
61675;SDS011;47574;52.090;5.244;2023-02-28T04:03:16;7.5;;;3.5;;
61675;SDS011;47574;52.090;5.244;2023-02-28T04:04:52;5.11;;;3.5;;
61675;SDS011;47574;52.090;5.244;2023-02-28T04:06:29;4.7;;;3.5;;
61675;SDS011;47574;52.090;5.244;2023-02-28T04:08:08;7.0;;;3.5;;
61675;SDS011;47574;52.090;5.244;2023-02-28T04:11:21;7.0;;;3.7;;
61675;SDS011;47574;52.090;5.244;2023-02-28T04:13:02;5.5;;;3.6;;
61675;SDS011;47574;52.090;5.244;2023-02-28T04:14:38;6.2;;;4.2;;
61675;SDS011;47574;52.090;5.244;2023-02-28T04:17:51;7.3;;;4.1;;
61675;SDS011;47574;52.090;5.244;2023-02-28T04:19:28;6.3;;;3.6;;
61675;SDS011;47574;52.090;5.244;2023-02-28T04:21:04;6.3;;;3.6;;
61675;SDS011;47574;52.090;5.244;2023-02-28T04:22:41;7.4;;;4.0;;
61675;SDS011;47574;52.090;5.244;2023-02-28T04:25:56;5.8;;;4.1;;
61675;SDS011;47574;52.090;5.244;2023-02-28T04:27:32;7.4;;;4.0;;
61675;SDS011;47574;52.090;5.244;2023-02-28T04:29:10;7.2;;;4.3;;
61675;SDS011;47574;52.090;5.244;2023-02-28T04:32:31;6.5;;;4.2;;
61675;SDS011;47574;52.090;5.244;2023-02-28T04:34:07;4.5;;;3.7;;
61675;SDS011;47574;52.090;5.244;2023-02-28T04:35:43;5.11;;;3.9;;
61675;SDS011;47574;52.090;5.244;2023-02-28T04:37:19;6.9;;;3.7;;
61675;SDS011;47574;52.090;5.244;2023-02-28T04:40:32;6.8;;;3.9;;
61675;SDS011;47574;52.090;5.244;2023-02-28T04:42:09;5.4;;;3.3;;
61675;SDS011;47574;52.090;5.244;2023-02-28T04:43:46;7.7;;;3.5;;
61675;SDS011;47574;52.090;5.244;2023-02-28T04:46:58;3.8;;;3.2;;
61675;SDS011;47574;52.090;5.244;2023-02-28T04:48:35;6.7;;;3.6;;
61675;SDS011;47574;52.090;5.244;2023-02-28T04:50:13;6.5;;;3.4;;
61675;SDS011;47574;52.090;5.244;2023-02-28T04:51:49;7.1;;;3.6;;
61675;SDS011;47574;52.090;5.244;2023-02-28T04:55:04;4.41;;;3.5;;
61675;SDS011;47574;52.090;5.244;2023-02-28T04:56:41;5.2;;;3.5;;
61675;SDS011;47574;52.090;5.244;2023-02-28T04:58:18;5.7;;;3.4;;
61675;SDS011;47574;52.090;5.244;2023-02-28T05:01:31;6.2;;;3.2;;
61675;SDS011;47574;52.090;5.244;2023-02-28T05:03:08;6.0;;;3.5;;
61675;SDS011;47574;52.090;5.244;2023-02-28T05:04:44;4.5;;;3.3;;
61675;SDS011;47574;52.090;5.244;2023-02-28T05:07:59;6.9;;;3.3;;
61675;SDS011;47574;52.090;5.244;2023-02-28T05:09:35;7.3;;;3.1;;
61675;SDS011;47574;52.090;5.244;2023-02-28T05:11:14;4.91;;;3.3;;
61675;SDS011;47574;52.090;5.244;2023-02-28T05:12:52;4.0;;;2.9;;
61675;SDS011;47574;52.090;5.244;2023-02-28T05:16:05;5.4;;;3.1;;
61675;SDS011;47574;52.090;5.244;2023-02-28T05:17:42;4.2;;;3.0;;
61675;SDS011;47574;52.090;5.244;2023-02-28T05:19:19;4.41;;;3.3;;
61675;SDS011;47574;52.090;5.244;2023-02-28T05:22:31;4.61;;;3.2;;
61675;SDS011;47574;52.090;5.244;2023-02-28T05:24:09;3.3;;;3.0;;
61675;SDS011;47574;52.090;5.244;2023-02-28T05:25:47;5.4;;;3.0;;
61675;SDS011;47574;52.090;5.244;2023-02-28T05:27:23;3.7;;;3.1;;
61675;SDS011;47574;52.090;5.244;2023-02-28T05:30:36;4.0;;;3.1;;
61675;SDS011;47574;52.090;5.244;2023-02-28T05:33:49;5.4;;;3.4;;
61675;SDS011;47574;52.090;5.244;2023-02-28T05:37:02;5.7;;;3.5;;
61675;SDS011;47574;52.090;5.244;2023-02-28T05:38:38;4.5;;;3.3;;
61675;SDS011;47574;52.090;5.244;2023-02-28T05:40:15;3.2;;;2.9;;
61675;SDS011;47574;52.090;5.244;2023-02-28T05:43:28;3.8;;;3.2;;
61675;SDS011;47574;52.090;5.244;2023-02-28T05:45:05;5.0;;;3.7;;
61675;SDS011;47574;52.090;5.244;2023-02-28T05:46:41;5.2;;;3.3;;
61675;SDS011;47574;52.090;5.244;2023-02-28T05:49:53;4.0;;;3.4;;
61675;SDS011;47574;52.090;5.244;2023-02-28T05:51:29;5.0;;;3.4;;
61675;SDS011;47574;52.090;5.244;2023-02-28T05:53:06;4.2;;;3.8;;
61675;SDS011;47574;52.090;5.244;2023-02-28T05:54:42;4.0;;;3.3;;
61675;SDS011;47574;52.090;5.244;2023-02-28T05:57:54;5.5;;;3.9;;
61675;SDS011;47574;52.090;5.244;2023-02-28T05:59:30;4.7;;;3.6;;
61675;SDS011;47574;52.090;5.244;2023-02-28T06:01:30;5.8;;;3.8;;
61675;SDS011;47574;52.090;5.244;2023-02-28T06:03:08;5.8;;;3.9;;
61675;SDS011;47574;52.090;5.244;2023-02-28T06:06:22;5.8;;;3.9;;
61675;SDS011;47574;52.090;5.244;2023-02-28T06:07:58;5.6;;;3.9;;
61675;SDS011;47574;52.090;5.244;2023-02-28T06:09:34;5.4;;;4.1;;
61675;SDS011;47574;52.090;5.244;2023-02-28T06:12:48;7.2;;;4.2;;
61675;SDS011;47574;52.090;5.244;2023-02-28T06:14:24;4.41;;;4.0;;
61675;SDS011;47574;52.090;5.244;2023-02-28T06:16:01;5.5;;;4.1;;
61675;SDS011;47574;52.090;5.244;2023-02-28T06:17:37;6.5;;;4.7;;
61675;SDS011;47574;52.090;5.244;2023-02-28T06:20:52;4.7;;;4.2;;
61675;SDS011;47574;52.090;5.244;2023-02-28T06:22:28;4.61;;;4.2;;
61675;SDS011;47574;52.090;5.244;2023-02-28T06:24:04;4.7;;;4.3;;
61675;SDS011;47574;52.090;5.244;2023-02-28T06:27:20;5.0;;;4.0;;
61675;SDS011;47574;52.090;5.244;2023-02-28T06:28:57;6.2;;;4.0;;
61675;SDS011;47574;52.090;5.244;2023-02-28T06:30:33;4.7;;;4.2;;
61675;SDS011;47574;52.090;5.244;2023-02-28T06:33:45;6.7;;;4.5;;
61675;SDS011;47574;52.090;5.244;2023-02-28T06:35:22;6.4;;;4.3;;
61675;SDS011;47574;52.090;5.244;2023-02-28T06:36:58;10.0;;;4.91;;
61675;SDS011;47574;52.090;5.244;2023-02-28T06:38:36;5.0;;;4.5;;
61675;SDS011;47574;52.090;5.244;2023-02-28T06:41:51;6.3;;;4.5;;
61675;SDS011;47574;52.090;5.244;2023-02-28T06:43:27;5.2;;;4.7;;
61675;SDS011;47574;52.090;5.244;2023-02-28T06:45:05;6.3;;;4.41;;
61675;SDS011;47574;52.090;5.244;2023-02-28T06:48:20;4.8;;;4.3;;
61675;SDS011;47574;52.090;5.244;2023-02-28T06:49:56;5.9;;;4.61;;
61675;SDS011;47574;52.090;5.244;2023-02-28T06:51:33;5.9;;;5.3;;
61675;SDS011;47574;52.090;5.244;2023-02-28T06:54:45;6.1;;;4.41;;
61675;SDS011;47574;52.090;5.244;2023-02-28T06:56:21;7.2;;;4.61;;
61675;SDS011;47574;52.090;5.244;2023-02-28T06:57:57;4.91;;;4.1;;
61675;SDS011;47574;52.090;5.244;2023-02-28T06:59:34;5.0;;;4.41;;
61675;SDS011;47574;52.090;5.244;2023-02-28T07:02:49;5.7;;;5.0;;
61675;SDS011;47574;52.090;5.244;2023-02-28T07:04:25;4.91;;;4.41;;
61675;SDS011;47574;52.090;5.244;2023-02-28T07:06:01;5.2;;;3.9;;
61675;SDS011;47574;52.090;5.244;2023-02-28T07:09:15;6.2;;;4.8;;
61675;SDS011;47574;52.090;5.244;2023-02-28T07:10:51;6.2;;;4.61;;
61675;SDS011;47574;52.090;5.244;2023-02-28T07:12:28;7.1;;;4.91;;
61675;SDS011;47574;52.090;5.244;2023-02-28T07:15:41;8.1;;;4.8;;
61675;SDS011;47574;52.090;5.244;2023-02-28T07:17:17;6.4;;;4.8;;
61675;SDS011;47574;52.090;5.244;2023-02-28T07:18:53;5.11;;;4.3;;
61675;SDS011;47574;52.090;5.244;2023-02-28T07:20:29;6.4;;;5.0;;
61675;SDS011;47574;52.090;5.244;2023-02-28T07:23:43;8.71;;;4.8;;
61675;SDS011;47574;52.090;5.244;2023-02-28T07:25:20;7.6;;;5.11;;
61675;SDS011;47574;52.090;5.244;2023-02-28T07:26:56;6.1;;;5.0;;
61675;SDS011;47574;52.090;5.244;2023-02-28T07:30:10;6.8;;;4.91;;
61675;SDS011;47574;52.090;5.244;2023-02-28T07:31:46;6.7;;;5.0;;
61675;SDS011;47574;52.090;5.244;2023-02-28T07:33:22;7.5;;;6.0;;
61675;SDS011;47574;52.090;5.244;2023-02-28T07:36:34;8.71;;;5.11;;
61675;SDS011;47574;52.090;5.244;2023-02-28T07:38:11;6.9;;;4.8;;
61675;SDS011;47574;52.090;5.244;2023-02-28T07:39:47;7.9;;;6.4;;
61675;SDS011;47574;52.090;5.244;2023-02-28T07:41:23;15.0;;;9.71;;
61675;SDS011;47574;52.090;5.244;2023-02-28T07:44:36;5.3;;;4.7;;
61675;SDS011;47574;52.090;5.244;2023-02-28T07:46:14;7.6;;;5.9;;
61675;SDS011;47574;52.090;5.244;2023-02-28T07:47:52;10.8;;;6.5;;
61675;SDS011;47574;52.090;5.244;2023-02-28T07:51:05;9.21;;;5.9;;
61675;SDS011;47574;52.090;5.244;2023-02-28T07:52:41;6.0;;;4.8;;
61675;SDS011;47574;52.090;5.244;2023-02-28T07:54:18;6.7;;;5.3;;
61675;SDS011;47574;52.090;5.244;2023-02-28T07:57:31;7.4;;;5.11;;
61675;SDS011;47574;52.090;5.244;2023-02-28T07:59:07;6.1;;;4.7;;
61675;SDS011;47574;52.090;5.244;2023-02-28T08:00:43;8.4;;;4.7;;
61675;SDS011;47574;52.090;5.244;2023-02-28T08:02:20;7.8;;;5.5;;
61675;SDS011;47574;52.090;5.244;2023-02-28T08:05:32;6.2;;;5.11;;
61675;SDS011;47574;52.090;5.244;2023-02-28T08:07:08;7.8;;;5.2;;
61675;SDS011;47574;52.090;5.244;2023-02-28T08:08:44;8.6;;;5.8;;
61675;SDS011;47574;52.090;5.244;2023-02-28T08:11:57;6.8;;;5.9;;
61675;SDS011;47574;52.090;5.244;2023-02-28T08:13:33;9.0;;;6.2;;
61675;SDS011;47574;52.090;5.244;2023-02-28T08:15:09;9.5;;;5.7;;
61675;SDS011;47574;52.090;5.244;2023-02-28T08:18:23;8.1;;;5.6;;
61675;SDS011;47574;52.090;5.244;2023-02-28T08:19:59;8.1;;;5.6;;
61675;SDS011;47574;52.090;5.244;2023-02-28T08:21:36;9.21;;;6.2;;
61675;SDS011;47574;52.090;5.244;2023-02-28T08:23:12;7.3;;;5.4;;
61675;SDS011;47574;52.090;5.244;2023-02-28T08:26:25;7.9;;;6.0;;
61675;SDS011;47574;52.090;5.244;2023-02-28T08:28:01;6.0;;;5.4;;
61675;SDS011;47574;52.090;5.244;2023-02-28T08:29:38;7.2;;;5.3;;
61675;SDS011;47574;52.090;5.244;2023-02-28T08:32:53;7.0;;;5.3;;
61675;SDS011;47574;52.090;5.244;2023-02-28T08:34:29;6.9;;;5.3;;
61675;SDS011;47574;52.090;5.244;2023-02-28T08:36:05;6.5;;;5.2;;
61675;SDS011;47574;52.090;5.244;2023-02-28T08:39:19;7.2;;;5.8;;
61675;SDS011;47574;52.090;5.244;2023-02-28T08:40:57;5.7;;;5.2;;
61675;SDS011;47574;52.090;5.244;2023-02-28T08:42:34;8.81;;;5.11;;
61675;SDS011;47574;52.090;5.244;2023-02-28T08:44:11;7.2;;;4.8;;
61675;SDS011;47574;52.090;5.244;2023-02-28T08:47:27;7.0;;;4.7;;
61675;SDS011;47574;52.090;5.244;2023-02-28T08:49:03;5.11;;;4.61;;
61675;SDS011;47574;52.090;5.244;2023-02-28T08:50:39;7.5;;;4.5;;
61675;SDS011;47574;52.090;5.244;2023-02-28T08:53:53;5.3;;;4.2;;
61675;SDS011;47574;52.090;5.244;2023-02-28T08:55:30;5.5;;;4.7;;
61675;SDS011;47574;52.090;5.244;2023-02-28T08:57:06;4.91;;;4.41;;
61675;SDS011;47574;52.090;5.244;2023-02-28T08:58:42;5.7;;;4.1;;
61675;SDS011;47574;52.090;5.244;2023-02-28T09:01:57;5.5;;;4.91;;
61675;SDS011;47574;52.090;5.244;2023-02-28T09:03:33;5.3;;;3.7;;
61675;SDS011;47574;52.090;5.244;2023-02-28T09:05:10;6.6;;;4.2;;
61675;SDS011;47574;52.090;5.244;2023-02-28T09:08:22;6.6;;;3.9;;
61675;SDS011;47574;52.090;5.244;2023-02-28T09:09:59;5.2;;;3.6;;
61675;SDS011;47574;52.090;5.244;2023-02-28T09:11:35;5.0;;;3.6;;
61675;SDS011;47574;52.090;5.244;2023-02-28T09:14:48;4.7;;;3.6;;
61675;SDS011;47574;52.090;5.244;2023-02-28T09:16:24;3.8;;;3.4;;
61675;SDS011;47574;52.090;5.244;2023-02-28T09:18:01;4.0;;;3.2;;
61675;SDS011;47574;52.090;5.244;2023-02-28T09:19:37;5.4;;;3.4;;
61675;SDS011;47574;52.090;5.244;2023-02-28T09:22:52;4.8;;;3.5;;
61675;SDS011;47574;52.090;5.244;2023-02-28T09:24:28;5.4;;;3.6;;
61675;SDS011;47574;52.090;5.244;2023-02-28T09:26:04;5.5;;;3.8;;
61675;SDS011;47574;52.090;5.244;2023-02-28T09:29:17;3.9;;;2.9;;
61675;SDS011;47574;52.090;5.244;2023-02-28T09:30:54;4.41;;;3.4;;
61675;SDS011;47574;52.090;5.244;2023-02-28T09:32:31;4.61;;;3.4;;
61675;SDS011;47574;52.090;5.244;2023-02-28T09:35:43;4.5;;;3.5;;
61675;SDS011;47574;52.090;5.244;2023-02-28T09:37:19;4.5;;;3.5;;
61675;SDS011;47574;52.090;5.244;2023-02-28T09:38:55;4.41;;;3.0;;
61675;SDS011;47574;52.090;5.244;2023-02-28T09:42:17;3.3;;;2.8;;
61675;SDS011;47574;52.090;5.244;2023-02-28T09:44:05;4.0;;;2.9;;
61675;SDS011;47574;52.090;5.244;2023-02-28T09:45:50;3.7;;;2.8;;
61675;SDS011;47574;52.090;5.244;2023-02-28T09:47:31;6.0;;;2.9;;
61675;SDS011;47574;52.090;5.244;2023-02-28T09:49:12;3.6;;;2.6;;
61675;SDS011;47574;52.090;5.244;2023-02-28T09:52:36;4.41;;;2.5;;
61675;SDS011;47574;52.090;5.244;2023-02-28T09:54:14;4.2;;;2.7;;
61675;SDS011;47574;52.090;5.244;2023-02-28T09:55:53;2.9;;;2.4;;
61675;SDS011;47574;52.090;5.244;2023-02-28T09:57:35;2.9;;;2.7;;
61675;SDS011;47574;52.090;5.244;2023-02-28T10:01:19;4.61;;;2.5;;
61675;SDS011;47574;52.090;5.244;2023-02-28T10:03:12;5.0;;;2.9;;
61675;SDS011;47574;52.090;5.244;2023-02-28T10:05:02;3.3;;;2.4;;
61675;SDS011;47574;52.090;5.244;2023-02-28T10:06:44;2.5;;;2.1;;
61675;SDS011;47574;52.090;5.244;2023-02-28T10:08:25;3.3;;;2.1;;
61675;SDS011;47574;52.090;5.244;2023-02-28T10:10:14;1.7;;;1.6;;
61675;SDS011;47574;52.090;5.244;2023-02-28T10:11:57;2.9;;;1.5;;
61675;SDS011;47574;52.090;5.244;2023-02-28T10:15:27;2.21;;;1.6;;
61675;SDS011;47574;52.090;5.244;2023-02-28T10:17:08;2.7;;;1.5;;
61675;SDS011;47574;52.090;5.244;2023-02-28T10:18:50;2.4;;;1.5;;
61675;SDS011;47574;52.090;5.244;2023-02-28T10:20:35;2.4;;;1.5;;
61675;SDS011;47574;52.090;5.244;2023-02-28T10:23:59;3.8;;;1.5;;
61675;SDS011;47574;52.090;5.244;2023-02-28T10:25:54;2.7;;;1.6;;
61675;SDS011;47574;52.090;5.244;2023-02-28T10:27:34;2.0;;;1.3;;
61675;SDS011;47574;52.090;5.244;2023-02-28T10:29:10;2.4;;;1.7;;
61675;SDS011;47574;52.090;5.244;2023-02-28T10:30:47;1.7;;;1.6;;
61675;SDS011;47574;52.090;5.244;2023-02-28T10:34:07;1.7;;;1.5;;
61675;SDS011;47574;52.090;5.244;2023-02-28T10:35:47;5.11;;;1.7;;
61675;SDS011;47574;52.090;5.244;2023-02-28T10:37:24;1.8;;;1.7;;
61675;SDS011;47574;52.090;5.244;2023-02-28T10:41:11;2.9;;;1.6;;
61675;SDS011;47574;52.090;5.244;2023-02-28T10:42:54;4.91;;;2.5;;
61675;SDS011;47574;52.090;5.244;2023-02-28T10:44:34;3.6;;;2.9;;
61675;SDS011;47574;52.090;5.244;2023-02-28T10:46:11;2.9;;;1.9;;
61675;SDS011;47574;52.090;5.244;2023-02-28T10:47:52;2.4;;;1.6;;
61675;SDS011;47574;52.090;5.244;2023-02-28T10:51:07;3.4;;;1.8;;
61675;SDS011;47574;52.090;5.244;2023-02-28T10:52:45;2.1;;;1.9;;
61675;SDS011;47574;52.090;5.244;2023-02-28T10:54:23;2.4;;;1.7;;
61675;SDS011;47574;52.090;5.244;2023-02-28T10:56:04;5.2;;;1.6;;
61675;SDS011;47574;52.090;5.244;2023-02-28T10:59:27;3.4;;;1.5;;
61675;SDS011;47574;52.090;5.244;2023-02-28T11:01:10;2.0;;;1.8;;
61675;SDS011;47574;52.090;5.244;2023-02-28T11:02:49;2.1;;;1.6;;
61675;SDS011;47574;52.090;5.244;2023-02-28T11:04:34;5.7;;;1.8;;
61675;SDS011;47574;52.090;5.244;2023-02-28T11:07:54;2.0;;;1.7;;
61675;SDS011;47574;52.090;5.244;2023-02-28T11:09:35;1.6;;;1.5;;
61675;SDS011;47574;52.090;5.244;2023-02-28T11:11:14;2.1;;;1.9;;
61675;SDS011;47574;52.090;5.244;2023-02-28T11:12:53;5.0;;;2.0;;
61675;SDS011;47574;52.090;5.244;2023-02-28T11:16:30;2.7;;;2.1;;
61675;SDS011;47574;52.090;5.244;2023-02-28T11:18:18;5.3;;;3.4;;
61675;SDS011;47574;52.090;5.244;2023-02-28T11:19:59;4.7;;;1.8;;
61675;SDS011;47574;52.090;5.244;2023-02-28T11:21:39;3.7;;;1.8;;
61675;SDS011;47574;52.090;5.244;2023-02-28T11:23:24;4.0;;;1.6;;
61675;SDS011;47574;52.090;5.244;2023-02-28T11:26:46;1.8;;;1.5;;
61675;SDS011;47574;52.090;5.244;2023-02-28T11:28:27;1.5;;;1.4;;
61675;SDS011;47574;52.090;5.244;2023-02-28T11:30:11;2.6;;;1.5;;
61675;SDS011;47574;52.090;5.244;2023-02-28T11:32:01;1.5;;;1.4;;
61675;SDS011;47574;52.090;5.244;2023-02-28T11:33:49;2.1;;;1.5;;
61675;SDS011;47574;52.090;5.244;2023-02-28T11:37:11;1.8;;;1.5;;
61675;SDS011;47574;52.090;5.244;2023-02-28T11:38:51;1.7;;;1.5;;
61675;SDS011;47574;52.090;5.244;2023-02-28T11:40:31;3.9;;;1.6;;
61675;SDS011;47574;52.090;5.244;2023-02-28T11:42:25;2.4;;;1.7;;
61675;SDS011;47574;52.090;5.244;2023-02-28T11:45:17;1.6;;;1.5;;
61675;SDS011;47574;52.090;5.244;2023-02-28T11:47:15;2.1;;;1.6;;
61675;SDS011;47574;52.090;5.244;2023-02-28T11:49:02;1.5;;;1.4;;
61675;SDS011;47574;52.090;5.244;2023-02-28T11:50:55;1.6;;;1.5;;
61675;SDS011;47574;52.090;5.244;2023-02-28T11:52:43;2.5;;;1.9;;
61675;SDS011;47574;52.090;5.244;2023-02-28T11:56:29;4.61;;;2.0;;
61675;SDS011;47574;52.090;5.244;2023-02-28T11:58:15;3.9;;;1.6;;
61675;SDS011;47574;52.090;5.244;2023-02-28T12:00:33;3.0;;;1.8;;
61675;SDS011;47574;52.090;5.244;2023-02-28T12:02:22;2.0;;;1.8;;
61675;SDS011;47574;52.090;5.244;2023-02-28T12:04:04;1.9;;;1.5;;
61675;SDS011;47574;52.090;5.244;2023-02-28T12:05:58;1.9;;;1.5;;
61675;SDS011;47574;52.090;5.244;2023-02-28T12:07:56;1.8;;;1.4;;
61675;SDS011;47574;52.090;5.244;2023-02-28T12:09:46;4.3;;;1.6;;
61675;SDS011;47574;52.090;5.244;2023-02-28T12:11:39;4.2;;;1.8;;
61675;SDS011;47574;52.090;5.244;2023-02-28T12:13:28;1.9;;;1.7;;
61675;SDS011;47574;52.090;5.244;2023-02-28T12:18:25;1.9;;;1.6;;
61675;SDS011;47574;52.090;5.244;2023-02-28T12:20:28;2.1;;;1.7;;
61675;SDS011;47574;52.090;5.244;2023-02-28T12:22:16;1.6;;;1.5;;
61675;SDS011;47574;52.090;5.244;2023-02-28T12:24:08;1.6;;;1.5;;
61675;SDS011;47574;52.090;5.244;2023-02-28T12:26:28;1.6;;;1.4;;
61675;SDS011;47574;52.090;5.244;2023-02-28T12:28:13;2.6;;;1.4;;
61675;SDS011;47574;52.090;5.244;2023-02-28T12:31:35;2.6;;;1.4;;
61675;SDS011;47574;52.090;5.244;2023-02-28T12:33:15;2.21;;;1.3;;
61675;SDS011;47574;52.090;5.244;2023-02-28T12:34:57;2.1;;;1.5;;
61675;SDS011;47574;52.090;5.244;2023-02-28T12:36:40;1.7;;;1.6;;
61675;SDS011;47574;52.090;5.244;2023-02-28T12:40:01;2.1;;;1.4;;
61675;SDS011;47574;52.090;5.244;2023-02-28T12:41:41;2.8;;;1.4;;
61675;SDS011;47574;52.090;5.244;2023-02-28T12:43:22;1.7;;;1.5;;
61675;SDS011;47574;52.090;5.244;2023-02-28T12:45:08;1.7;;;1.6;;
61675;SDS011;47574;52.090;5.244;2023-02-28T12:46:51;3.3;;;1.6;;
61675;SDS011;47574;52.090;5.244;2023-02-28T12:50:18;1.8;;;1.5;;
61675;SDS011;47574;52.090;5.244;2023-02-28T12:51:56;1.5;;;1.4;;
61675;SDS011;47574;52.090;5.244;2023-02-28T12:53:36;3.5;;;1.4;;
61675;SDS011;47574;52.090;5.244;2023-02-28T12:55:27;1.5;;;1.4;;
61675;SDS011;47574;52.090;5.244;2023-02-28T12:57:15;3.6;;;1.5;;
61675;SDS011;47574;52.090;5.244;2023-02-28T13:00:48;1.7;;;1.4;;
61675;SDS011;47574;52.090;5.244;2023-02-28T13:03:41;1.8;;;1.7;;
61675;SDS011;47574;52.090;5.244;2023-02-28T13:08:23;2.1;;;1.6;;
61675;SDS011;47574;52.090;5.244;2023-02-28T13:10:39;1.3;;;1.2;;
61675;SDS011;47574;52.090;5.244;2023-02-28T13:12:20;1.4;;;1.3;;